createdAt,value
2022-10-26T00:01:20.017Z,100597.72
2022-10-26T00:03:46.670Z,100596.81
2022-10-26T00:06:19.239Z,100584.56
2022-10-26T00:08:47.012Z,100588.94
2022-10-26T00:11:14.382Z,100590.09
2022-10-26T00:13:41.693Z,100597.94
2022-10-26T00:16:20.235Z,100603.25
2022-10-26T00:18:47.564Z,100602.31
2022-10-26T00:21:15.062Z,100606.72
2022-10-26T00:23:41.663Z,100606.59
2022-10-26T00:26:09.330Z,100608.28
2022-10-26T00:28:36.638Z,100605.84
2022-10-26T00:31:06.021Z,100596.34
2022-10-26T00:33:32.683Z,100609.56
2022-10-26T00:35:59.293Z,100609.03
2022-10-26T00:38:25.936Z,100611.72
2022-10-26T00:40:52.723Z,100605.94
2022-10-26T00:43:22.052Z,100608.88
2022-10-26T00:45:54.972Z,100606.72
2022-10-26T00:48:31.793Z,100602.34
2022-10-26T00:51:03.330Z,100597.06
2022-10-26T00:53:30.806Z,100596.06
2022-10-26T00:55:57.431Z,100601.53
2022-10-26T00:58:25.747Z,100593.88
2022-10-26T01:00:52.569Z,100604.22
2022-10-26T01:03:20.651Z,100599.69
2022-10-26T01:05:49.535Z,100603.09
2022-10-26T01:08:17.031Z,100602.50
2022-10-26T01:10:43.627Z,100599.03
2022-10-26T01:13:11.581Z,100605.06
2022-10-26T01:15:40.714Z,100598.81
2022-10-26T01:18:20.461Z,100595.72
2022-10-26T01:21:22.260Z,100610.63
2022-10-26T01:24:00.943Z,100600.88
2022-10-26T01:26:36.457Z,100597.97
2022-10-26T01:29:06.038Z,100588.38
2022-10-26T01:31:57.897Z,100586.78
2022-10-26T01:34:36.988Z,100588.63
2022-10-26T01:37:15.200Z,100581.66
2022-10-26T01:39:52.185Z,100583.53
2022-10-26T01:42:21.817Z,100581.66
2022-10-26T01:44:55.898Z,100579.84
2022-10-26T01:47:24.098Z,100578.28
2022-10-26T01:49:56.584Z,100588.94
2022-10-26T01:52:23.974Z,100576.56
2022-10-26T01:54:50.568Z,100576.47
2022-10-26T01:57:21.707Z,100581.84
2022-10-26T01:59:51.015Z,100581.81
2022-10-26T02:02:35.943Z,100578.44
2022-10-26T02:05:24.135Z,100577.56
2022-10-26T02:08:19.445Z,100571.44
2022-10-26T02:11:04.789Z,100566.16
2022-10-26T02:14:07.601Z,100575.94
2022-10-26T02:16:39.837Z,100581.03
2022-10-26T02:19:18.483Z,100582.94
2022-10-26T02:21:51.833Z,100585.59
2022-10-26T02:24:21.088Z,100577.00
2022-10-26T02:26:51.700Z,100573.63
2022-10-26T02:29:20.672Z,100578.88
2022-10-26T02:31:49.695Z,100572.63
2022-10-26T02:34:22.035Z,100571.09
2022-10-26T02:36:51.900Z,100578.91
2022-10-26T02:39:20.165Z,100585.00
2022-10-26T02:41:48.879Z,100588.94
2022-10-26T02:44:27.714Z,100585.66
2022-10-26T02:46:55.922Z,100599.00
2022-10-26T02:49:23.998Z,100602.50
2022-10-26T02:52:12.952Z,100597.47
2022-10-26T02:54:50.757Z,100600.78
2022-10-26T02:57:23.653Z,100607.38
2022-10-26T02:59:50.948Z,100604.38
2022-10-26T03:02:19.728Z,100603.66
2022-10-26T03:04:49.605Z,100598.59
2022-10-26T03:07:24.025Z,100604.50
2022-10-26T03:09:50.791Z,100605.34
2022-10-26T03:12:17.462Z,100611.41
2022-10-26T03:14:44.107Z,100618.53
2022-10-26T03:17:10.708Z,100616.75
2022-10-26T03:19:37.295Z,100617.94
2022-10-26T03:22:03.886Z,100625.25
2022-10-26T03:24:30.579Z,100626.78
2022-10-26T03:26:59.683Z,100622.97
2022-10-26T03:29:28.709Z,100617.03
2022-10-26T03:31:55.316Z,100627.59
2022-10-26T03:34:21.937Z,100630.19
2022-10-26T03:36:48.564Z,100618.72
2022-10-26T03:39:15.178Z,100626.66
2022-10-26T03:41:41.812Z,100621.56
2022-10-26T03:44:08.401Z,100617.13
2022-10-26T03:46:34.982Z,100620.72
2022-10-26T03:49:01.610Z,100627.72
2022-10-26T03:51:29.933Z,100636.34
2022-10-26T03:53:56.525Z,100639.00
2022-10-26T03:56:23.143Z,100636.31
2022-10-26T03:58:49.802Z,100642.31
2022-10-26T04:01:16.442Z,100641.72
2022-10-26T04:03:43.087Z,100643.50
2022-10-26T04:06:10.962Z,100638.31
2022-10-26T04:08:37.584Z,100640.81
2022-10-26T04:11:04.836Z,100651.19
2022-10-26T04:13:31.863Z,100643.63
2022-10-26T04:15:58.482Z,100648.97
2022-10-26T04:18:25.190Z,100658.88
2022-10-26T04:20:51.775Z,100658.41
2022-10-26T04:23:19.769Z,100661.78
2022-10-26T04:25:46.839Z,100656.47
2022-10-26T04:28:14.426Z,100659.44
2022-10-26T04:30:41.072Z,100656.22
2022-10-26T04:33:07.989Z,100655.41
2022-10-26T04:35:35.129Z,100653.88
2022-10-26T04:38:04.360Z,100649.38
2022-10-26T04:40:32.292Z,100651.03
2022-10-26T04:42:59.524Z,100644.41
2022-10-26T04:45:26.327Z,100649.69
2022-10-26T04:48:08.092Z,100647.84
2022-10-26T04:50:34.885Z,100653.00
2022-10-26T04:53:01.986Z,100647.78
2022-10-26T04:55:28.579Z,100640.06
2022-10-26T04:57:57.250Z,100640.00
2022-10-26T05:00:27.081Z,100644.59
2022-10-26T05:02:59.454Z,100642.94
2022-10-26T05:05:26.250Z,100638.69
2022-10-26T05:07:56.949Z,100644.75
2022-10-26T05:10:24.437Z,100644.56
2022-10-26T05:12:55.454Z,100639.19
2022-10-26T05:15:22.406Z,100642.59
2022-10-26T05:17:58.116Z,100647.00
2022-10-26T05:20:26.062Z,100652.97
2022-10-26T05:22:52.930Z,100657.28
2022-10-26T05:25:19.524Z,100652.28
2022-10-26T05:27:46.112Z,100648.69
2022-10-26T05:30:12.862Z,100655.91
2022-10-26T05:32:39.472Z,100665.50
2022-10-26T05:35:06.304Z,100669.91
2022-10-26T05:37:32.940Z,100669.03
2022-10-26T05:39:59.534Z,100662.88
2022-10-26T05:42:26.102Z,100664.63
2022-10-26T05:44:52.774Z,100661.28
2022-10-26T05:47:19.360Z,100656.03
2022-10-26T05:49:45.926Z,100661.22
2022-10-26T05:52:12.618Z,100664.72
2022-10-26T05:54:39.191Z,100664.59
2022-10-26T05:57:06.089Z,100665.50
2022-10-26T05:59:32.929Z,100671.69
2022-10-26T06:02:05.783Z,100678.34
2022-10-26T06:04:45.822Z,100681.72
2022-10-26T06:07:15.136Z,100687.28
2022-10-26T06:09:42.449Z,100689.84
2022-10-26T06:12:11.834Z,100685.19
2022-10-26T06:14:40.378Z,100689.09
2022-10-26T06:17:17.104Z,100684.72
2022-10-26T06:19:58.806Z,100695.69
2022-10-26T06:22:50.406Z,100691.72
2022-10-26T06:25:51.168Z,100699.69
2022-10-26T06:28:44.007Z,100706.34
2022-10-26T06:31:14.293Z,100704.16
2022-10-26T06:33:41.548Z,100706.41
2022-10-26T06:36:21.663Z,100707.44
2022-10-26T06:38:52.767Z,100707.09
2022-10-26T06:41:20.837Z,100706.84
2022-10-26T06:43:48.062Z,100713.22
2022-10-26T06:46:46.037Z,100712.53
2022-10-26T06:49:21.993Z,100721.97
2022-10-26T06:52:20.409Z,100722.44
2022-10-26T06:54:56.315Z,100730.97
2022-10-26T06:57:25.145Z,100729.88
2022-10-26T06:59:51.762Z,100737.38
2022-10-26T07:02:18.665Z,100744.59
2022-10-26T07:04:45.464Z,100739.44
2022-10-26T07:07:16.306Z,100743.88
2022-10-26T07:09:42.868Z,100736.53
2022-10-26T07:12:09.468Z,100746.09
2022-10-26T07:14:36.064Z,100740.97
2022-10-26T07:17:02.785Z,100738.81
2022-10-26T07:19:29.423Z,100734.31
2022-10-26T07:21:56.591Z,100736.03
2022-10-26T07:24:23.635Z,100739.13
2022-10-26T07:26:50.257Z,100743.03
2022-10-26T07:29:16.853Z,100733.28
2022-10-26T07:31:43.849Z,100737.03
2022-10-26T07:34:10.464Z,100746.88
2022-10-26T07:36:37.042Z,100743.84
2022-10-26T07:39:04.296Z,100743.03
2022-10-26T07:41:30.942Z,100743.03
2022-10-26T07:43:57.793Z,100743.34
2022-10-26T07:46:24.575Z,100749.34
2022-10-26T07:48:51.324Z,100744.78
2022-10-26T07:51:17.962Z,100745.31
2022-10-26T07:53:45.292Z,100749.78
2022-10-26T07:56:12.581Z,100743.31
2022-10-26T07:58:39.195Z,100743.59
2022-10-26T08:01:08.367Z,100746.75
2022-10-26T08:03:35.134Z,100748.66
2022-10-26T08:06:01.781Z,100749.34
2022-10-26T08:08:28.389Z,100743.44
2022-10-26T08:10:54.960Z,100737.63
2022-10-26T08:13:21.602Z,100737.09
2022-10-26T08:15:48.180Z,100735.38
2022-10-26T08:18:14.917Z,100732.97
2022-10-26T08:20:41.538Z,100735.06
2022-10-26T08:23:08.244Z,100733.09
2022-10-26T08:25:35.285Z,100742.44
2022-10-26T08:28:03.332Z,100738.84
2022-10-26T08:30:36.465Z,100740.69
2022-10-26T08:33:06.171Z,100743.81
2022-10-26T08:35:33.707Z,100743.56
2022-10-26T08:38:00.317Z,100746.66
2022-10-26T08:40:36.589Z,100759.66
2022-10-26T08:43:33.944Z,100762.53
2022-10-26T08:46:13.396Z,100765.22
2022-10-26T08:48:47.986Z,100764.06
2022-10-26T08:51:17.533Z,100761.91
2022-10-26T08:53:48.091Z,100755.25
2022-10-26T08:56:35.594Z,100757.22
2022-10-26T08:59:38.379Z,100766.94
2022-10-26T09:02:12.863Z,100760.91
2022-10-26T09:04:40.177Z,100763.91
2022-10-26T09:07:33.672Z,100767.91
2022-10-26T09:10:33.975Z,100771.84
2022-10-26T09:13:03.441Z,100772.22
2022-10-26T09:15:57.685Z,100778.69
2022-10-26T09:19:09.149Z,100782.03
2022-10-26T09:21:38.694Z,100784.28
2022-10-26T09:24:33.303Z,100792.53
2022-10-26T09:27:24.306Z,100785.16
2022-10-26T09:29:51.951Z,100791.94
2022-10-26T09:32:21.578Z,100792.78
2022-10-26T09:34:59.498Z,100800.34
2022-10-26T09:37:32.776Z,100801.34
2022-10-26T09:40:08.688Z,100806.31
2022-10-26T09:42:50.315Z,100807.81
2022-10-26T09:45:34.252Z,100807.22
2022-10-26T09:48:28.659Z,100810.53
2022-10-26T09:50:56.850Z,100802.06
2022-10-26T09:53:24.859Z,100805.25
2022-10-26T09:56:00.189Z,100797.72
2022-10-26T09:58:30.891Z,100799.06
2022-10-26T10:00:57.811Z,100793.66
2022-10-26T10:03:29.891Z,100794.81
2022-10-26T10:06:17.962Z,100796.38
2022-10-26T10:09:07.997Z,100804.28
2022-10-26T10:11:55.174Z,100810.56
2022-10-26T10:14:39.920Z,100802.63
2022-10-26T10:17:19.836Z,100803.25
2022-10-26T10:19:46.754Z,100808.75
2022-10-26T10:22:16.099Z,100805.84
2022-10-26T10:24:56.616Z,100802.84
2022-10-26T10:27:24.168Z,100796.16
2022-10-26T10:29:59.758Z,100794.75
2022-10-26T10:32:35.327Z,100798.84
2022-10-26T10:35:23.879Z,100790.97
2022-10-26T10:37:51.798Z,100789.50
2022-10-26T10:40:22.077Z,100789.69
2022-10-26T10:42:51.655Z,100795.38
2022-10-26T10:45:22.593Z,100790.94
2022-10-26T10:48:31.757Z,100787.69
2022-10-26T10:51:06.217Z,100791.81
2022-10-26T10:53:42.011Z,100783.63
2022-10-26T10:56:14.626Z,100779.50
2022-10-26T10:58:46.305Z,100782.50
2022-10-26T11:01:14.693Z,100780.66
2022-10-26T11:03:54.419Z,100781.66
2022-10-26T11:06:25.674Z,100774.34
2022-10-26T11:09:12.504Z,100780.81
2022-10-26T11:11:52.999Z,100779.13
2022-10-26T11:14:25.413Z,100783.69
2022-10-26T11:17:38.527Z,100780.03
2022-10-26T11:20:14.870Z,100775.56
2022-10-26T11:22:54.064Z,100773.91
2022-10-26T11:25:57.872Z,100780.25
2022-10-26T11:28:58.921Z,100783.50
2022-10-26T11:31:35.011Z,100778.06
2022-10-26T11:34:18.253Z,100777.41
2022-10-26T11:36:50.490Z,100779.31
2022-10-26T11:39:47.740Z,100777.66
2022-10-26T11:42:36.547Z,100769.31
2022-10-26T11:45:10.720Z,100772.75
2022-10-26T11:48:04.553Z,100766.31
2022-10-26T11:50:36.783Z,100764.00
2022-10-26T11:53:29.410Z,100754.19
2022-10-26T11:55:56.770Z,100749.09
2022-10-26T11:58:26.136Z,100747.63
2022-10-26T12:01:00.898Z,100760.00
2022-10-26T12:03:36.894Z,100755.22
2022-10-26T12:06:03.644Z,100748.78
2022-10-26T12:08:41.028Z,100757.41
2022-10-26T12:11:32.734Z,100748.56
2022-10-26T12:14:05.082Z,100746.47
2022-10-26T12:16:46.563Z,100755.91
2022-10-26T12:19:20.264Z,100748.25
2022-10-26T12:21:49.786Z,100747.97
2022-10-26T12:24:22.433Z,100747.81
2022-10-26T12:27:00.111Z,100741.03
2022-10-26T12:29:58.726Z,100748.53
2022-10-26T12:32:28.235Z,100750.03
2022-10-26T12:34:54.770Z,100749.47
2022-10-26T12:37:37.104Z,100746.25
2022-10-26T12:40:30.521Z,100756.91
2022-10-26T12:42:57.993Z,100756.38
2022-10-26T12:45:24.595Z,100742.63
2022-10-26T12:47:51.427Z,100744.44
2022-10-26T12:50:24.714Z,100743.31
2022-10-26T12:53:04.924Z,100743.63
2022-10-26T12:55:46.390Z,100743.19
2022-10-26T12:58:34.066Z,100735.09
2022-10-26T13:01:00.655Z,100741.56
2022-10-26T13:03:51.634Z,100737.44
2022-10-26T13:06:55.564Z,100742.34
2022-10-26T13:09:27.748Z,100736.03
2022-10-26T13:11:57.204Z,100747.72
2022-10-26T13:14:36.045Z,100738.59
2022-10-26T13:17:06.236Z,100737.22
2022-10-26T13:19:45.844Z,100742.88
2022-10-26T13:22:20.319Z,100744.38
2022-10-26T13:24:57.380Z,100738.66
2022-10-26T13:27:40.685Z,100737.94
2022-10-26T13:30:20.042Z,100735.91
2022-10-26T13:32:53.951Z,100749.81
2022-10-26T13:35:23.948Z,100749.00
2022-10-26T13:37:56.214Z,100745.19
2022-10-26T13:40:28.053Z,100744.16
2022-10-26T13:43:02.820Z,100746.84
2022-10-26T13:45:55.568Z,100747.78
2022-10-26T13:48:37.119Z,100747.44
2022-10-26T13:51:14.165Z,100746.63
2022-10-26T13:53:46.275Z,100736.13
2022-10-26T13:56:24.559Z,100742.81
2022-10-26T13:59:12.673Z,100740.34
2022-10-26T14:01:39.407Z,100746.78
2022-10-26T14:04:27.009Z,100743.66
2022-10-26T14:06:54.833Z,100742.63
2022-10-26T14:09:23.266Z,100743.25
2022-10-26T14:11:57.911Z,100742.47
2022-10-26T14:14:33.669Z,100745.06
2022-10-26T14:17:00.828Z,100746.81
2022-10-26T14:19:39.696Z,100745.06
2022-10-26T14:22:07.224Z,100744.94
2022-10-26T14:24:46.952Z,100739.28
2022-10-26T14:27:16.824Z,100749.63
2022-10-26T14:29:46.918Z,100751.56
2022-10-26T14:32:26.997Z,100752.56
2022-10-26T14:34:54.577Z,100739.25
2022-10-26T14:37:50.222Z,100749.47
2022-10-26T14:40:20.468Z,100744.50
2022-10-26T14:42:51.525Z,100744.84
2022-10-26T14:45:47.635Z,100742.97
2022-10-26T14:48:32.315Z,100740.09
2022-10-26T14:51:11.640Z,100749.56
2022-10-26T14:53:41.074Z,100755.00
2022-10-26T14:56:23.767Z,100756.56
2022-10-26T14:58:51.193Z,100760.63
2022-10-26T15:01:24.076Z,100755.59
2022-10-26T15:04:31.899Z,100754.81
2022-10-26T15:07:18.186Z,100760.19
2022-10-26T15:09:52.553Z,100756.38
2022-10-26T15:12:35.114Z,100753.00
2022-10-26T15:15:13.711Z,100756.41
2022-10-26T15:17:56.181Z,100760.88
2022-10-26T15:20:24.912Z,100759.06
2022-10-26T15:22:57.694Z,100760.38
2022-10-26T15:25:27.979Z,100765.84
2022-10-26T15:27:54.731Z,100761.59
2022-10-26T15:30:27.321Z,100768.53
2022-10-26T15:32:55.562Z,100762.78
2022-10-26T15:35:30.116Z,100771.66
2022-10-26T15:37:58.034Z,100771.41
2022-10-26T15:42:59.701Z,100773.50
2022-10-26T15:45:30.086Z,100777.00
2022-10-26T15:47:58.360Z,100779.06
2022-10-26T15:50:28.326Z,100773.66
2022-10-26T15:52:59.154Z,100788.91
2022-10-26T15:55:25.846Z,100786.72
2022-10-26T15:57:52.793Z,100786.84
2022-10-26T16:00:19.614Z,100788.88
2022-10-26T16:02:46.527Z,100795.53
2022-10-26T16:05:15.035Z,100793.06
2022-10-26T16:07:44.041Z,100798.28
2022-10-26T16:10:17.815Z,100804.19
2022-10-26T16:12:44.490Z,100801.09
2022-10-26T16:15:17.507Z,100805.78
2022-10-26T16:17:44.533Z,100803.75
2022-10-26T16:20:22.334Z,100795.63
2022-10-26T16:22:53.166Z,100804.06
2022-10-26T16:25:23.511Z,100802.41
2022-10-26T16:27:51.357Z,100804.63
2022-10-26T16:30:19.115Z,100803.88
2022-10-26T16:32:46.330Z,100805.50
2022-10-26T16:35:13.538Z,100807.19
2022-10-26T16:37:40.262Z,100801.88
2022-10-26T16:40:08.217Z,100814.28
2022-10-26T16:42:35.039Z,100813.25
2022-10-26T16:45:02.879Z,100810.09
2022-10-26T16:47:33.037Z,100819.56
2022-10-26T16:49:59.640Z,100820.41
2022-10-26T16:52:26.221Z,100829.44
2022-10-26T16:54:52.819Z,100835.88
2022-10-26T16:57:19.417Z,100835.97
2022-10-26T16:59:46.101Z,100829.69
2022-10-26T17:02:15.522Z,100822.72
2022-10-26T17:04:42.250Z,100823.22
2022-10-26T17:07:08.943Z,100827.75
2022-10-26T17:09:35.518Z,100828.38
2022-10-26T17:12:02.694Z,100829.66
2022-10-26T17:14:29.302Z,100828.63
2022-10-26T17:16:55.875Z,100840.25
2022-10-26T17:19:22.442Z,100836.97
2022-10-26T17:21:49.014Z,100837.97
2022-10-26T17:24:15.650Z,100845.19
2022-10-26T17:26:42.374Z,100833.25
2022-10-26T17:29:11.732Z,100844.72
2022-10-26T17:31:38.358Z,100846.25
2022-10-26T17:34:05.201Z,100842.09
2022-10-26T17:36:31.809Z,100845.78
2022-10-26T17:38:58.550Z,100856.31
2022-10-26T17:41:25.512Z,100853.97
2022-10-26T17:43:53.492Z,100866.19
2022-10-26T17:46:22.720Z,100868.66
2022-10-26T17:48:49.323Z,100866.41
2022-10-26T17:51:17.899Z,100872.31
2022-10-26T17:53:48.438Z,100874.00
2022-10-26T17:56:23.270Z,100871.41
2022-10-26T17:58:55.124Z,100863.00
2022-10-26T18:01:22.517Z,100871.69
2022-10-26T18:03:49.382Z,100875.44
2022-10-26T18:06:16.012Z,100885.94
2022-10-26T18:08:44.034Z,100883.34
2022-10-26T18:11:22.545Z,100877.78
2022-10-26T18:13:56.691Z,100875.81
2022-10-26T18:16:25.002Z,100871.88
2022-10-26T18:18:57.370Z,100875.13
2022-10-26T18:21:23.991Z,100883.03
2022-10-26T18:23:52.877Z,100883.53
2022-10-26T18:26:24.500Z,100888.94
2022-10-26T18:28:51.075Z,100891.81
2022-10-26T18:31:20.331Z,100887.56
2022-10-26T18:33:47.200Z,100887.25
2022-10-26T18:36:18.625Z,100897.41
2022-10-26T18:38:48.849Z,100898.63
2022-10-26T18:41:17.844Z,100890.75
2022-10-26T18:43:47.048Z,100898.63
2022-10-26T18:46:19.159Z,100893.13
2022-10-26T18:48:48.104Z,100900.81
2022-10-26T18:51:16.869Z,100895.66
2022-10-26T18:53:44.675Z,100904.66
2022-10-26T18:56:14.149Z,100894.25
2022-10-26T18:58:46.527Z,100896.84
2022-10-26T19:01:18.863Z,100894.06
2022-10-26T19:03:46.730Z,100896.56
2022-10-26T19:06:18.939Z,100907.69
2022-10-26T19:08:46.748Z,100911.72
2022-10-26T19:11:15.627Z,100923.31
2022-10-26T19:13:42.693Z,100919.28
2022-10-26T19:16:21.795Z,100920.06
2022-10-26T19:18:56.118Z,100930.34
2022-10-26T19:21:24.224Z,100929.28
2022-10-26T19:23:53.282Z,100931.13
2022-10-26T19:26:22.558Z,100941.13
2022-10-26T19:28:54.788Z,100943.88
2022-10-26T19:31:26.227Z,100948.44
2022-10-26T19:33:54.535Z,100944.44
2022-10-26T19:36:22.771Z,100955.13
2022-10-26T19:38:49.462Z,100960.06
2022-10-26T19:41:16.704Z,100954.16
2022-10-26T19:43:44.276Z,100959.97
2022-10-26T19:46:20.260Z,100961.41
2022-10-26T19:48:54.991Z,100966.78
2022-10-26T19:51:22.470Z,100972.78
2022-10-26T19:53:49.100Z,100975.50
2022-10-26T19:56:16.090Z,100983.44
2022-10-26T19:58:44.615Z,100982.59
2022-10-26T20:01:12.631Z,100987.97
2022-10-26T20:03:39.478Z,100985.84
2022-10-26T20:06:08.845Z,100987.94
2022-10-26T20:08:35.596Z,100993.19
2022-10-26T20:11:03.120Z,100984.59
2022-10-26T20:13:29.963Z,100992.16
2022-10-26T20:15:56.567Z,100992.25
2022-10-26T20:18:23.135Z,100999.19
2022-10-26T20:20:50.205Z,100998.44
2022-10-26T20:23:16.855Z,101005.03
2022-10-26T20:25:48.700Z,100996.56
2022-10-26T20:28:16.888Z,100999.03
2022-10-26T20:30:44.960Z,101000.16
2022-10-26T20:33:12.119Z,100997.38
2022-10-26T20:35:38.799Z,101005.34
2022-10-26T20:38:07.138Z,101008.75
2022-10-26T20:40:34.607Z,101012.19
2022-10-26T20:43:01.453Z,101008.81
2022-10-26T20:45:32.932Z,101009.75
2022-10-26T20:48:00.900Z,101007.16
2022-10-26T20:50:29.574Z,101013.31
2022-10-26T20:53:09.278Z,101011.59
2022-10-26T20:55:55.644Z,101015.41
2022-10-26T20:58:38.956Z,101012.94
2022-10-26T21:01:10.034Z,101006.88
2022-10-26T21:03:36.737Z,101013.09
2022-10-26T21:06:05.869Z,101012.88
2022-10-26T21:08:32.469Z,101018.69
2022-10-26T21:10:59.049Z,101023.88
2022-10-26T21:13:25.631Z,101023.91
2022-10-26T21:15:52.216Z,101022.44
2022-10-26T21:18:18.829Z,101018.28
2022-10-26T21:20:45.422Z,101016.56
2022-10-26T21:23:11.991Z,101014.84
2022-10-26T21:25:38.659Z,101014.66
2022-10-26T21:28:05.971Z,101010.47
2022-10-26T21:30:33.043Z,100997.13
2022-10-26T21:32:59.813Z,101001.88
2022-10-26T21:35:26.403Z,101010.28
2022-10-26T21:37:54.538Z,101016.50
2022-10-26T21:40:21.251Z,101014.22
2022-10-26T21:42:51.981Z,101022.31
2022-10-26T21:45:19.088Z,101018.78
2022-10-26T21:47:46.122Z,101028.53
2022-10-26T21:50:12.729Z,101030.25
2022-10-26T21:52:39.317Z,101032.75
2022-10-26T21:55:06.131Z,101036.34
2022-10-26T21:57:32.715Z,101038.25
2022-10-26T21:59:59.314Z,101031.63
2022-10-26T22:02:27.398Z,101029.69
2022-10-26T22:04:53.999Z,101030.81
2022-10-26T22:07:20.570Z,101038.19
2022-10-26T22:10:07.532Z,101039.78
2022-10-26T22:12:34.468Z,101034.06
2022-10-26T22:15:01.110Z,101033.72
2022-10-26T22:17:27.694Z,101034.78
2022-10-26T22:19:54.346Z,101035.56
2022-10-26T22:22:20.987Z,101026.94
2022-10-26T22:24:47.585Z,101032.13
2022-10-26T22:27:14.160Z,101030.78
2022-10-26T22:29:40.770Z,101038.94
2022-10-26T22:32:07.359Z,101038.16
2022-10-26T22:34:33.947Z,101043.31
2022-10-26T22:37:00.595Z,101039.81
2022-10-26T22:39:27.183Z,101045.03
2022-10-26T22:41:53.801Z,101047.00
2022-10-26T22:44:20.403Z,101052.25
2022-10-26T22:46:46.967Z,101052.63
2022-10-26T22:49:13.823Z,101050.03
2022-10-26T22:51:40.494Z,101054.53
2022-10-26T22:54:07.060Z,101053.06
2022-10-26T22:56:35.281Z,101051.28
2022-10-26T22:59:01.924Z,101053.03
2022-10-26T23:01:32.290Z,101058.31
2022-10-26T23:03:59.920Z,101064.16
2022-10-26T23:06:29.042Z,101061.69
2022-10-26T23:08:55.690Z,101065.34
2022-10-26T23:11:24.197Z,101065.81
2022-10-26T23:13:59.797Z,101065.00
2022-10-26T23:16:27.722Z,101057.22
2022-10-26T23:18:54.925Z,101071.13
2022-10-26T23:21:24.140Z,101065.50
2022-10-26T23:23:51.006Z,101061.25
2022-10-26T23:26:19.688Z,101072.03
2022-10-26T23:28:46.722Z,101064.56
2022-10-26T23:31:24.947Z,101059.19
2022-10-26T23:33:52.842Z,101067.84
2022-10-26T23:36:20.057Z,101060.81
2022-10-26T23:38:47.196Z,101065.16
2022-10-26T23:41:13.841Z,101066.75
2022-10-26T23:43:41.091Z,101066.75
2022-10-26T23:46:07.711Z,101064.97
2022-10-26T23:48:34.458Z,101069.44
2022-10-26T23:51:01.041Z,101068.91
2022-10-26T23:53:27.627Z,101076.81
2022-10-26T23:55:54.216Z,101075.03
2022-10-26T23:58:20.780Z,101080.44
